Time;durP1;ratioP1;P1;durP2;ratioP2;P2;SDS_P1;SDS_P2;PMS_P1;PMS_P2;Temp;Humidity;BMP_temperature;BMP_pressure;BME280_temperature;BME280_humidity;BME280_pressure;Samples;Min_cycle;Max_cycle;Signal;HPM_P1;HPM_P2
2023/05/13 00:00:18;;;;;;;0.63;0.60;;;;;;;29.66;32.57;101071.66;7395669;19;20357;-93
2023/05/13 00:02:44;;;;;;;0.75;0.63;;;;;;;29.65;32.07;101060.75;7399047;19;20015;-93
2023/05/13 00:05:10;;;;;;;2.58;1.23;;;;;;;29.58;31.92;101065.19;7400721;19;20014;-96
2023/05/13 00:07:36;;;;;;;2.33;1.02;;;;;;;29.38;32.41;101063.34;7399522;19;20040;-95
2023/05/13 00:10:03;;;;;;;2.67;0.82;;;;;;;29.28;32.45;101053.81;7398438;19;20469;-94
2023/05/13 00:12:30;;;;;;;3.63;1.02;;;;;;;29.19;32.34;101058.03;7399699;19;20037;-95
2023/05/13 00:14:56;;;;;;;1.73;0.80;;;;;;;29.05;32.67;101041.59;7398591;19;20019;-95
2023/05/13 00:17:22;;;;;;;1.58;0.70;;;;;;;28.96;32.48;101050.78;7396419;19;20010;-93
2023/05/13 00:19:48;;;;;;;4.43;1.15;;;;;;;28.86;32.34;101052.72;7398087;19;20031;-94
2023/05/13 00:22:14;;;;;;;2.17;1.10;;;;;;;28.62;32.91;101047.56;7400339;19;20026;-94
2023/05/13 00:24:40;;;;;;;0.70;0.70;;;;;;;28.05;33.78;101049.97;7399550;19;20550;-94
2023/05/13 00:27:07;;;;;;;2.20;1.58;;;;;;;27.98;33.77;101056.47;7402741;19;20014;-94
2023/05/13 00:29:33;;;;;;;0.60;0.60;;;;;;;27.96;33.91;101048.38;7402898;19;20043;-94
2023/05/13 00:32:00;;;;;;;1.77;0.90;;;;;;;27.79;33.79;101051.00;7398266;19;20050;-95
2023/05/13 00:34:26;;;;;;;5.72;0.98;;;;;;;27.99;33.30;101047.28;7397594;19;20017;-95
2023/05/13 00:36:52;;;;;;;1.23;1.23;;;;;;;27.93;33.71;101038.09;7397749;19;20042;-95
2023/05/13 00:39:18;;;;;;;2.53;0.75;;;;;;;27.91;33.57;101045.72;7396029;19;20100;-95
2023/05/13 00:41:44;;;;;;;0.80;0.75;;;;;;;27.73;33.56;101053.28;7424703;19;20010;-95
2023/05/13 00:44:10;;;;;;;0.80;0.80;;;;;;;27.80;33.83;101046.81;7429641;19;20058;-93
2023/05/13 00:46:37;;;;;;;1.42;1.27;;;;;;;27.87;33.72;101051.81;7420059;19;20011;-91
2023/05/13 00:49:04;;;;;;;1.23;1.17;;;;;;;27.91;33.59;101045.72;7421735;19;20014;-92
2023/05/13 00:51:31;;;;;;;0.82;0.80;;;;;;;28.43;33.51;101057.31;7410612;19;20014;-87
2023/05/13 00:53:58;;;;;;;2.28;1.08;;;;;;;28.39;33.08;101054.03;7408544;19;20021;-89
2023/05/13 00:56:25;;;;;;;2.00;1.15;;;;;;;28.43;33.31;101050.78;7402611;19;20031;-90
2023/05/13 00:58:51;;;;;;;4.95;1.63;;;;;;;28.54;33.33;101039.69;7402451;19;20027;-88
2023/05/13 01:01:24;;;;;;;3.35;1.35;;;;;;;28.56;32.94;101046.97;7413164;19;20015;-89
2023/05/13 01:04:05;;;;;;;2.50;0.82;;;;;;;28.55;33.42;101043.34;7413638;19;20528;-92
2023/05/13 01:06:43;;;;;;;2.05;1.85;;;;;;;28.63;33.48;101041.25;7407689;19;20342;-89
2023/05/13 01:09:48;;;;;;;3.13;1.45;;;;;;;28.68;33.46;101046.03;7398898;19;20420;-89
2023/05/13 01:12:31;;;;;;;2.08;1.17;;;;;;;28.73;32.91;101044.31;7397451;19;20014;-90
2023/05/13 01:15:06;;;;;;;3.22;1.67;;;;;;;28.85;33.01;101048.31;7397507;19;20031;-89
2023/05/13 01:18:06;;;;;;;1.27;0.93;;;;;;;28.97;33.20;101047.34;7396968;19;20018;-88
2023/05/13 01:20:34;;;;;;;1.80;0.75;;;;;;;28.98;33.22;101048.09;7394505;19;20038;-88
2023/05/13 01:23:00;;;;;;;1.25;0.85;;;;;;;29.21;33.26;101043.13;7394456;19;20019;-88
2023/05/13 01:25:26;;;;;;;1.65;1.48;;;;;;;28.93;33.32;101046.22;7394665;19;20017;-88
2023/05/13 01:27:53;;;;;;;1.65;0.88;;;;;;;28.94;33.29;101042.00;7399274;19;20027;-88
2023/05/13 01:30:20;;;;;;;2.00;1.67;;;;;;;29.03;33.28;101044.28;7392613;19;20085;-87
2023/05/13 01:32:48;;;;;;;2.15;0.77;;;;;;;28.92;33.55;101036.84;7394894;19;20014;-87
2023/05/13 01:35:16;;;;;;;3.85;1.55;;;;;;;28.76;33.49;101043.19;7392608;19;20030;-89
2023/05/13 01:37:46;;;;;;;6.05;1.73;;;;;;;28.78;33.26;101040.50;7390783;19;20023;-87
2023/05/13 01:40:12;;;;;;;3.85;1.48;;;;;;;29.06;33.27;101043.13;7396277;19;20018;-88
2023/05/13 01:42:39;;;;;;;3.15;2.00;;;;;;;29.13;33.37;101040.22;7393419;19;20037;-88
2023/05/13 01:45:06;;;;;;;1.92;0.77;;;;;;;29.04;33.12;101034.34;7392252;19;20010;-88
2023/05/13 01:47:32;;;;;;;0.43;0.43;;;;;;;29.15;33.09;101051.88;7393401;19;20018;-88
2023/05/13 01:49:59;;;;;;;0.95;0.95;;;;;;;29.18;33.26;101038.53;7396559;19;20353;-84
2023/05/13 01:52:26;;;;;;;3.72;2.30;;;;;;;29.30;32.88;101044.63;7395202;19;20011;-92
2023/05/13 01:54:52;;;;;;;1.15;0.98;;;;;;;29.47;33.29;101039.00;7395788;19;20021;-91
2023/05/13 01:57:19;;;;;;;1.27;0.57;;;;;;;29.31;33.40;101046.91;7397533;19;20047;-91
2023/05/13 01:59:46;;;;;;;2.90;1.17;;;;;;;29.16;33.56;101035.47;7396561;19;20028;-90
2023/05/13 02:02:12;;;;;;;1.67;1.25;;;;;;;29.22;33.44;101044.63;7392922;19;20048;-90
2023/05/13 02:04:38;;;;;;;2.88;1.63;;;;;;;29.39;32.84;101035.41;7396337;19;20014;-90
2023/05/13 02:07:05;;;;;;;2.20;1.33;;;;;;;29.42;33.09;101037.88;7394839;19;20014;-90
2023/05/13 02:09:32;;;;;;;2.28;1.30;;;;;;;26.03;37.07;101040.94;7395766;19;20046;-90
2023/05/13 02:11:58;;;;;;;2.85;1.25;;;;;;;28.73;33.86;101039.34;7393386;19;20018;-91
2023/05/13 02:14:25;;;;;;;3.25;1.35;;;;;;;28.88;33.63;101032.81;7395321;19;20043;-90
2023/05/13 02:16:51;;;;;;;1.92;1.75;;;;;;;28.90;33.45;101038.75;7393754;19;20014;-90
2023/05/13 02:19:18;;;;;;;1.35;1.25;;;;;;;28.68;33.32;101042.41;7395100;19;20010;-90
2023/05/13 02:21:45;;;;;;;2.20;2.00;;;;;;;28.67;33.83;101038.78;7393930;19;20014;-90
2023/05/13 02:24:12;;;;;;;2.47;1.63;;;;;;;28.87;33.55;101026.31;7392459;19;20015;-90
2023/05/13 02:26:40;;;;;;;0.77;0.77;;;;;;;28.81;33.42;101039.31;7394453;19;20011;-90
2023/05/13 02:29:07;;;;;;;6.05;1.80;;;;;;;28.89;33.39;101035.09;7391929;19;20479;-90
2023/05/13 02:31:34;;;;;;;3.03;1.80;;;;;;;28.75;33.43;101041.63;7395725;19;20018;-90
2023/05/13 02:34:02;;;;;;;3.47;1.10;;;;;;;29.03;33.20;101045.03;7393479;19;20007;-90
2023/05/13 02:36:28;;;;;;;2.38;1.73;;;;;;;29.22;33.30;101050.38;7392563;19;20020;-90
2023/05/13 02:38:55;;;;;;;6.40;1.75;;;;;;;29.23;33.10;101046.19;7391965;19;20014;-89
2023/05/13 02:41:21;;;;;;;2.55;1.90;;;;;;;29.27;33.15;101048.63;7393720;19;20018;-90
2023/05/13 02:43:48;;;;;;;10.25;1.55;;;;;;;29.24;33.04;101044.81;7395173;19;20018;-89
2023/05/13 02:46:14;;;;;;;7.32;1.38;;;;;;;29.24;33.06;101041.94;7393692;19;20018;-89
2023/05/13 02:48:43;;;;;;;4.85;1.08;;;;;;;29.25;33.39;101037.75;7392553;19;20022;-89
2023/05/13 02:51:09;;;;;;;1.30;1.27;;;;;;;29.24;33.29;101041.94;7393019;19;20031;-90
2023/05/13 02:53:37;;;;;;;10.35;1.90;;;;;;;29.37;33.12;101038.09;7395066;19;20038;-90
2023/05/13 02:56:05;;;;;;;3.65;1.83;;;;;;;28.88;33.53;101038.56;7392618;19;20022;-90
2023/05/13 02:58:31;;;;;;;3.60;1.40;;;;;;;28.92;33.19;101038.94;7392199;19;20086;-90
2023/05/13 03:00:58;;;;;;;5.57;1.55;;;;;;;28.75;33.59;101030.16;7391487;19;20052;-89
2023/05/13 03:03:24;;;;;;;6.00;1.65;;;;;;;28.60;33.44;101030.19;7392156;19;20010;-90
2023/05/13 03:05:51;;;;;;;2.92;1.33;;;;;;;28.47;33.61;101023.28;7394509;19;20019;-90
2023/05/13 03:08:17;;;;;;;4.30;1.98;;;;;;;28.38;33.51;101020.97;7391636;19;20019;-90
2023/05/13 03:10:43;;;;;;;5.43;1.30;;;;;;;28.30;33.87;101019.44;7392998;19;20014;-90
2023/05/13 03:13:09;;;;;;;4.47;1.58;;;;;;;28.34;33.57;101014.88;7391127;19;20015;-89
2023/05/13 03:15:35;;;;;;;4.03;2.08;;;;;;;28.29;33.94;101015.81;7394886;19;20018;-90
2023/05/13 03:18:01;;;;;;;2.45;1.65;;;;;;;27.90;34.00;101012.66;7390221;19;20006;-90
2023/05/13 03:20:27;;;;;;;1.73;1.60;;;;;;;27.38;34.37;101008.31;7390778;19;20010;-90
2023/05/13 03:22:54;;;;;;;2.47;1.70;;;;;;;27.24;34.80;101006.88;7391280;19;20019;-90
2023/05/13 03:25:20;;;;;;;2.35;1.40;;;;;;;27.38;34.17;101000.50;7391710;19;20090;-89
2023/05/13 03:27:51;;;;;;;1.23;1.23;;;;;;;27.65;33.81;101006.69;7394933;19;20018;-90
2023/05/13 03:30:19;;;;;;;1.52;0.98;;;;;;;27.74;34.13;100986.13;7389503;19;20014;-89
2023/05/13 03:32:53;;;;;;;2.33;1.05;;;;;;;27.71;34.17;100990.09;7390903;19;20023;-89
2023/05/13 03:35:19;;;;;;;2.53;1.38;;;;;;;27.69;34.08;100993.53;7392209;19;20019;-90
2023/05/13 03:37:46;;;;;;;1.65;1.13;;;;;;;27.64;33.57;101000.19;7389151;19;20022;-89
2023/05/13 03:40:13;;;;;;;9.63;1.83;;;;;;;27.27;34.04;100994.28;7391547;19;20018;-90
2023/05/13 03:42:40;;;;;;;2.75;1.40;;;;;;;27.40;34.03;101002.78;7391982;19;20420;-89
2023/05/13 03:45:07;;;;;;;9.88;2.05;;;;;;;27.50;33.92;100989.47;7392931;19;20019;-90
2023/05/13 03:47:37;;;;;;;4.70;1.60;;;;;;;27.39;33.75;100989.81;7390528;19;20006;-89
2023/05/13 03:50:07;;;;;;;2.33;1.47;;;;;;;27.38;34.17;100999.72;7389330;19;20019;-90
2023/05/13 03:52:39;;;;;;;2.00;1.60;;;;;;;27.44;34.12;101003.19;7394435;19;20263;-90
2023/05/13 03:55:06;;;;;;;2.75;1.90;;;;;;;27.58;34.15;101007.44;7390347;19;20018;-89
2023/05/13 03:57:33;;;;;;;0.93;0.65;;;;;;;27.43;34.25;101001.66;7392097;19;20028;-90
2023/05/13 03:59:59;;;;;;;1.50;1.40;;;;;;;27.59;33.91;101003.25;7387568;19;20006;-89
2023/05/13 04:02:26;;;;;;;1.73;1.20;;;;;;;27.68;33.95;100999.81;7390731;19;20018;-89
2023/05/13 04:04:52;;;;;;;3.92;1.85;;;;;;;27.69;34.02;100998.50;7392828;19;20014;-90
2023/05/13 04:07:18;;;;;;;4.38;1.27;;;;;;;27.76;34.33;100995.66;7390014;19;20406;-90
2023/05/13 04:09:44;;;;;;;4.35;1.25;;;;;;;27.73;34.21;100996.03;7396201;19;20022;-90
2023/05/13 04:12:11;;;;;;;4.68;1.63;;;;;;;27.68;34.34;100999.81;7397782;19;20021;-89
2023/05/13 04:14:38;;;;;;;1.63;1.52;;;;;;;27.71;34.46;101010.91;7399774;19;20356;-89
2023/05/13 04:17:05;;;;;;;2.97;1.17;;;;;;;27.88;34.01;101003.88;7398640;19;20018;-89
2023/05/13 04:19:31;;;;;;;2.38;1.85;;;;;;;27.90;34.45;101022.03;7396541;19;20054;-89
2023/05/13 04:21:57;;;;;;;2.83;1.35;;;;;;;27.88;34.19;101024.69;7398818;19;20480;-89
2023/05/13 04:24:23;;;;;;;1.80;1.35;;;;;;;27.99;34.17;101030.09;7397670;19;20091;-90
2023/05/13 04:26:49;;;;;;;1.70;1.60;;;;;;;28.04;34.05;101029.16;7400693;19;20023;-89
2023/05/13 04:29:17;;;;;;;3.72;1.52;;;;;;;28.18;33.92;101021.91;7399701;19;20014;-90
2023/05/13 04:31:44;;;;;;;4.45;2.20;;;;;;;28.10;33.78;101029.75;7399566;19;20021;-95
2023/05/13 04:34:10;;;;;;;4.60;1.63;;;;;;;27.99;33.91;101024.38;7397609;19;20011;-95
2023/05/13 04:36:37;;;;;;;3.22;1.08;;;;;;;28.02;33.83;101023.25;7396702;19;20390;-95
2023/05/13 04:39:03;;;;;;;2.55;1.27;;;;;;;27.98;33.59;101025.69;7397661;19;20010;-96
2023/05/13 04:41:29;;;;;;;1.33;0.93;;;;;;;27.86;33.63;101033.09;7399633;19;20464;-95
2023/05/13 04:43:55;;;;;;;2.92;1.00;;;;;;;27.84;33.75;101027.19;7398794;19;20046;-96
2023/05/13 04:46:22;;;;;;;3.38;1.27;;;;;;;27.95;33.50;101029.69;7396385;19;20026;-96
2023/05/13 04:48:50;;;;;;;4.10;1.23;;;;;;;28.00;33.53;101028.78;7395591;19;20416;-95
2023/05/13 04:51:17;;;;;;;2.03;1.75;;;;;;;27.92;33.55;101038.63;7396612;19;20010;-96
2023/05/13 04:53:44;;;;;;;1.27;1.20;;;;;;;27.97;33.78;101040.56;7399716;19;20021;-95
2023/05/13 04:56:11;;;;;;;3.42;2.47;;;;;;;28.05;33.53;101038.50;7397322;19;20035;-96
2023/05/13 04:58:37;;;;;;;1.30;1.20;;;;;;;28.00;33.76;101040.25;7397561;19;20085;-95
2023/05/13 05:01:03;;;;;;;1.92;1.58;;;;;;;28.00;33.82;101036.59;7398113;19;20022;-95
2023/05/13 05:03:30;;;;;;;1.45;1.35;;;;;;;27.96;33.78;101039.78;7396260;19;20012;-94
2023/05/13 05:05:57;;;;;;;0.75;0.75;;;;;;;27.96;33.59;101048.38;7399708;19;20015;-95
2023/05/13 05:08:24;;;;;;;1.30;1.27;;;;;;;28.05;33.79;101044.22;7396315;19;20014;-95
2023/05/13 05:10:50;;;;;;;1.33;1.15;;;;;;;28.20;33.71;101056.50;7397014;19;20006;-95
2023/05/13 05:13:16;;;;;;;2.22;1.42;;;;;;;28.28;33.78;101051.56;7398374;19;20038;-95
2023/05/13 05:15:43;;;;;;;2.08;1.23;;;;;;;28.30;33.23;101048.88;7399998;19;20092;-94
2023/05/13 05:18:10;;;;;;;2.78;2.58;;;;;;;28.25;33.38;101064.16;7393858;19;20014;-95
2023/05/13 05:20:38;;;;;;;2.20;2.00;;;;;;;28.24;33.52;101064.72;7395097;19;20027;-95
2023/05/13 05:23:09;;;;;;;5.95;1.50;;;;;;;28.25;33.53;101064.16;7398190;19;20019;-94
2023/05/13 05:25:35;;;;;;;1.30;0.65;;;;;;;28.23;33.83;101072.56;7396377;19;20006;-95
2023/05/13 05:28:03;;;;;;;1.52;1.15;;;;;;;28.23;33.88;101066.06;7402056;19;20034;-95
2023/05/13 05:30:38;;;;;;;3.72;1.63;;;;;;;28.27;33.47;101072.16;7393303;19;20006;-95
2023/05/13 05:33:05;;;;;;;4.32;1.75;;;;;;;28.02;33.32;101074.81;7395268;19;20031;-95
2023/05/13 05:35:37;;;;;;;1.77;1.55;;;;;;;28.10;33.37;101081.31;7395977;19;20043;-96
2023/05/13 05:38:10;;;;;;;1.92;1.02;;;;;;;28.26;33.49;101077.13;7394008;19;20011;-96
2023/05/13 05:40:40;;;;;;;0.80;0.80;;;;;;;28.29;33.17;101081.72;7395356;19;20026;-95
2023/05/13 05:43:07;;;;;;;1.43;1.20;;;;;;;28.77;32.65;101079.88;7396350;19;20068;-95
2023/05/13 05:45:37;;;;;;;1.48;1.05;;;;;;;29.33;32.61;101078.66;7398498;19;20482;-95
2023/05/13 05:48:05;;;;;;;2.13;1.42;;;;;;;29.51;32.01;101071.72;7396730;19;20036;-95
2023/05/13 05:50:32;;;;;;;3.05;1.67;;;;;;;29.28;32.78;101076.78;7394265;19;20039;-95
2023/05/13 05:53:01;;;;;;;2.47;1.25;;;;;;;29.14;32.56;101067.59;7397319;19;20086;-95
2023/05/13 05:55:28;;;;;;;1.00;1.00;;;;;;;29.07;32.83;101073.34;7395373;19;20015;-95
2023/05/13 05:58:02;;;;;;;2.45;1.13;;;;;;;29.16;32.74;101069.91;7399413;19;20018;-95
2023/05/13 06:00:29;;;;;;;19.48;3.03;;;;;;;29.39;32.48;101059.13;7393872;19;20010;-95
2023/05/13 06:02:58;;;;;;;1.85;0.88;;;;;;;29.54;32.66;101070.53;7394625;19;20018;-95
2023/05/13 06:05:24;;;;;;;2.35;0.73;;;;;;;29.56;32.60;101070.00;7397849;19;20093;-96
2023/05/13 06:07:51;;;;;;;2.28;1.05;;;;;;;29.72;32.48;101077.94;7394889;19;20036;-95
2023/05/13 06:10:17;;;;;;;2.50;1.30;;;;;;;29.57;32.50;101077.25;7393306;19;20021;-96
2023/05/13 06:12:44;;;;;;;4.05;0.73;;;;;;;29.46;32.12;101087.03;7394970;19;20090;-95
2023/05/13 06:15:10;;;;;;;3.40;1.92;;;;;;;29.65;32.11;101087.34;7397871;19;20026;-95
2023/05/13 06:17:37;;;;;;;1.70;0.93;;;;;;;29.43;31.59;101099.69;7397194;19;20027;-96
2023/05/13 06:20:05;;;;;;;0.70;0.70;;;;;;;29.25;32.10;101103.75;7393640;19;20016;-95
2023/05/13 06:22:33;;;;;;;3.55;1.38;;;;;;;29.61;32.37;101095.59;7398422;19;20007;-93
2023/05/13 06:24:59;;;;;;;2.10;1.77;;;;;;;29.72;31.80;101098.06;7396828;19;20019;-95
2023/05/13 06:27:25;;;;;;;2.53;0.40;;;;;;;29.73;31.99;101111.09;7400120;19;20482;-95
2023/05/13 06:29:51;;;;;;;3.25;1.23;;;;;;;29.91;31.73;101098.38;7397718;19;20015;-95
2023/05/13 06:32:19;;;;;;;2.88;1.48;;;;;;;30.04;31.86;101105.22;7393265;19;20019;-95
2023/05/13 06:34:45;;;;;;;2.15;0.88;;;;;;;30.64;30.88;101090.47;7393619;19;20018;-95
2023/05/13 06:37:15;;;;;;;7.13;1.35;;;;;;;30.91;30.92;101094.28;7393442;19;20066;-95
2023/05/13 06:39:41;;;;;;;1.20;0.90;;;;;;;31.02;30.27;101093.03;7398843;19;20010;-94
2023/05/13 06:42:08;;;;;;;1.02;0.95;;;;;;;31.22;30.04;101095.53;7395372;19;20022;-96
2023/05/13 06:44:42;;;;;;;2.90;0.73;;;;;;;31.40;29.98;101090.53;7394628;19;20018;-95
2023/05/13 06:47:13;;;;;;;0.63;0.55;;;;;;;31.96;29.65;101085.84;7394112;19;20014;-95
2023/05/13 06:49:39;;;;;;;;;;;;;;;32.87;29.12;101080.22;7397224;19;20476;-95
2023/05/13 06:52:05;;;;;;;3.22;0.90;;;;;;;32.73;29.01;101076.22;7392190;19;19911;-95
2023/05/13 06:54:31;;;;;;;6.93;1.10;;;;;;;32.67;28.86;101080.75;7392502;19;20038;-94
2023/05/13 06:56:58;;;;;;;3.03;0.98;;;;;;;32.96;28.73;101077.94;7396630;19;20018;-95
2023/05/13 06:59:24;;;;;;;1.48;0.80;;;;;;;32.86;28.83;101069.25;7396897;19;20022;-95
2023/05/13 07:01:50;;;;;;;1.23;1.13;;;;;;;32.77;28.53;101064.97;7393294;19;20010;-95
2023/05/13 07:04:16;;;;;;;0.45;0.35;;;;;;;32.60;29.07;101062.19;7393361;19;20209;-95
2023/05/13 07:06:47;;;;;;;1.83;1.13;;;;;;;32.44;28.89;101069.56;7393115;19;20346;-95
2023/05/13 07:09:13;;;;;;;4.57;1.38;;;;;;;32.45;28.70;101062.44;7395618;19;20014;-94
2023/05/13 07:11:40;;;;;;;3.15;1.15;;;;;;;32.51;28.68;101065.81;7393461;19;20018;-94
2023/05/13 07:14:06;;;;;;;1.48;1.05;;;;;;;32.01;29.36;101070.41;7394954;19;20030;-95
2023/05/13 07:16:32;;;;;;;0.95;0.80;;;;;;;32.15;29.28;101074.44;7398188;19;20015;-95
2023/05/13 07:18:58;;;;;;;5.38;1.98;;;;;;;32.26;29.00;101084.66;7396253;19;20030;-92
2023/05/13 07:21:25;;;;;;;2.83;0.65;;;;;;;32.38;29.25;101074.84;7397379;19;20091;-93
2023/05/13 07:23:51;;;;;;;0.98;0.70;;;;;;;32.69;28.58;101087.44;7399925;19;20013;-95
2023/05/13 07:26:17;;;;;;;1.05;0.75;;;;;;;32.57;28.14;101080.72;7398171;19;20015;-93
2023/05/13 07:28:44;;;;;;;1.00;0.85;;;;;;;32.47;28.28;101076.25;7397459;19;20023;-92
2023/05/13 07:31:10;;;;;;;7.40;1.15;;;;;;;32.30;28.53;101074.19;7394915;19;20113;-92
2023/05/13 07:33:36;;;;;;;1.33;0.93;;;;;;;32.59;28.41;101078.00;7397799;19;20015;-92
2023/05/13 07:36:02;;;;;;;5.07;0.95;;;;;;;32.42;28.82;101080.19;7393779;19;20086;-92
2023/05/13 07:38:28;;;;;;;1.83;1.35;;;;;;;32.49;29.16;101074.31;7394189;19;20010;-92
2023/05/13 07:40:55;;;;;;;1.33;1.23;;;;;;;32.90;28.61;101061.69;7408080;19;20013;-91
2023/05/13 07:43:24;;;;;;;3.05;1.23;;;;;;;32.69;28.33;101057.81;7416369;19;20345;-90
2023/05/13 07:45:50;;;;;;;2.20;0.90;;;;;;;32.76;28.72;101060.59;7424700;19;20010;-93
2023/05/13 07:48:17;;;;;;;2.85;1.02;;;;;;;32.87;28.64;101065.78;7425294;19;20068;-91
2023/05/13 07:50:44;;;;;;;3.60;1.02;;;;;;;32.87;28.57;101054.25;7404800;19;20046;-94
2023/05/13 07:53:11;;;;;;;0.95;0.80;;;;;;;32.71;28.53;101058.75;7400448;19;20030;-91
2023/05/13 07:55:37;;;;;;;0.68;0.68;;;;;;;33.33;27.52;101062.06;7399040;19;20514;-87
2023/05/13 07:58:03;;;;;;;3.83;0.82;;;;;;;33.77;27.80;101062.50;7398835;19;20015;-85
2023/05/13 08:00:29;;;;;;;3.08;0.73;;;;;;;34.25;27.96;101057.38;7393319;19;20580;-87
2023/05/13 08:02:55;;;;;;;1.85;0.70;;;;;;;34.14;28.13;101063.81;7398076;19;20023;-87
2023/05/13 08:05:22;;;;;;;2.47;0.85;;;;;;;34.20;27.65;101061.34;7397820;19;20022;-87
2023/05/13 08:07:48;;;;;;;0.68;0.65;;;;;;;34.20;27.95;101054.81;7396077;19;20089;-86
2023/05/13 08:10:14;;;;;;;1.42;1.20;;;;;;;34.22;27.31;101055.72;7398694;19;20487;-87
2023/05/13 08:12:40;;;;;;;6.32;0.98;;;;;;;34.38;27.10;101055.34;7396901;19;20014;-86
2023/05/13 08:15:07;;;;;;;1.00;0.65;;;;;;;34.29;27.44;101057.66;7400502;19;20050;-86
2023/05/13 08:17:33;;;;;;;0.68;0.68;;;;;;;34.31;28.11;101066.50;7394451;19;20482;-86
2023/05/13 08:20:00;;;;;;;1.05;0.90;;;;;;;34.60;27.52;101063.50;7397398;19;20078;-86
2023/05/13 08:22:26;;;;;;;1.60;0.40;;;;;;;34.60;27.64;101062.75;7398479;19;20032;-86
2023/05/13 08:24:53;;;;;;;0.80;0.60;;;;;;;34.27;27.78;101059.66;7397152;19;20029;-86
2023/05/13 08:27:19;;;;;;;1.55;0.80;;;;;;;34.09;27.35;101062.00;7400998;19;20052;-85
2023/05/13 08:29:45;;;;;;;2.05;1.13;;;;;;;33.91;27.13;101069.34;7397009;19;20018;-85
2023/05/13 08:32:11;;;;;;;0.30;0.30;;;;;;;34.11;27.27;101070.81;7396573;19;20007;-86
2023/05/13 08:34:38;;;;;;;0.95;0.55;;;;;;;34.63;27.38;101067.31;7395592;19;20025;-87
2023/05/13 08:37:05;;;;;;;1.08;0.70;;;;;;;34.70;26.61;101055.53;7394567;19;20025;-86
2023/05/13 08:39:31;;;;;;;5.97;0.75;;;;;;;34.64;26.63;101063.03;7396106;19;20042;-87
2023/05/13 08:41:58;;;;;;;1.30;0.70;;;;;;;34.87;26.89;101057.41;7395642;19;20018;-85
2023/05/13 08:44:28;;;;;;;3.20;0.93;;;;;;;34.76;26.80;101058.09;7394491;19;20061;-85
2023/05/13 08:47:06;;;;;;;2.75;1.17;;;;;;;34.45;26.67;101054.41;7396642;19;20086;-84
2023/05/13 08:49:33;;;;;;;0.73;0.65;;;;;;;34.42;27.04;101056.41;7397486;19;20010;-91
2023/05/13 08:51:59;;;;;;;3.83;0.90;;;;;;;34.49;26.92;101057.59;7399731;19;20031;-92
2023/05/13 08:54:28;;;;;;;2.00;0.93;;;;;;;34.67;27.02;101056.78;7396002;19;20022;-92
2023/05/13 08:56:54;;;;;;;1.92;0.70;;;;;;;34.65;26.97;101058.75;7399567;19;20023;-92
2023/05/13 08:59:20;;;;;;;0.43;0.43;;;;;;;34.62;26.85;101057.84;7399170;19;20019;-92
2023/05/13 09:01:49;;;;;;;0.75;0.55;;;;;;;34.58;27.12;101065.50;7396602;19;20014;-92
2023/05/13 09:04:17;;;;;;;2.40;1.17;;;;;;;34.46;26.72;101061.72;7398595;19;20075;-92
2023/05/13 09:06:46;;;;;;;0.82;0.60;;;;;;;34.12;26.96;101060.78;7398150;19;20026;-91
2023/05/13 09:09:12;;;;;;;0.47;0.30;;;;;;;34.42;27.18;101058.53;7397288;19;20026;-91
2023/05/13 09:11:39;;;;;;;0.90;0.40;;;;;;;34.15;27.43;101059.56;7396148;19;20033;-92
2023/05/13 09:14:07;;;;;;;0.77;0.52;;;;;;;34.20;27.48;101049.78;7397324;19;20019;-92
2023/05/13 09:16:35;;;;;;;1.40;0.85;;;;;;;34.16;27.41;101049.50;7395951;19;20327;-90
2023/05/13 09:19:05;;;;;;;1.40;0.77;;;;;;;34.40;27.49;101053.38;7395544;19;20010;-90
2023/05/13 09:21:34;;;;;;;1.00;0.47;;;;;;;34.41;27.62;101051.22;7398316;19;20388;-94
2023/05/13 09:24:06;;;;;;;2.05;1.05;;;;;;;34.81;27.56;101054.09;7397336;19;20090;-93
2023/05/13 09:26:32;;;;;;;1.58;0.68;;;;;;;34.68;27.04;101054.63;7399232;19;20085;-91
2023/05/13 09:29:23;;;;;;;3.05;1.02;;;;;;;34.45;26.96;101048.63;7397794;19;20508;-93
2023/05/13 09:31:54;;;;;;;0.73;0.43;;;;;;;34.20;26.97;101049.78;7395435;19;20022;-92
2023/05/13 09:34:24;;;;;;;0.93;0.75;;;;;;;34.23;27.76;101048.56;7394592;19;20025;-93
2023/05/13 09:37:05;;;;;;;1.55;0.80;;;;;;;34.54;27.21;101050.75;7394750;19;20021;-93
2023/05/13 09:39:38;;;;;;;2.83;0.63;;;;;;;34.68;27.33;101045.94;7397897;19;20082;-93
2023/05/13 09:42:04;;;;;;;3.03;1.73;;;;;;;34.80;27.21;101044.66;7396520;19;20085;-93
2023/05/13 09:44:31;;;;;;;3.47;1.52;;;;;;;35.18;26.64;101034.94;7397294;19;20349;-91
2023/05/13 09:46:57;;;;;;;0.93;0.52;;;;;;;35.19;26.57;101036.47;7395036;19;20015;-91
2023/05/13 09:49:25;;;;;;;2.42;0.75;;;;;;;35.28;27.17;101032.72;7397788;19;20085;-90
2023/05/13 09:51:51;;;;;;;1.27;0.95;;;;;;;35.13;27.00;101027.34;7395905;19;20029;-90
2023/05/13 09:54:17;;;;;;;0.70;0.52;;;;;;;34.77;27.19;101030.66;7396015;19;20010;-91
2023/05/13 09:56:44;;;;;;;1.80;0.88;;;;;;;34.62;27.34;101026.03;7396463;19;20026;-90
2023/05/13 09:59:10;;;;;;;2.97;1.13;;;;;;;34.73;27.09;101031.13;7397615;19;20352;-90
2023/05/13 10:01:38;;;;;;;1.65;0.75;;;;;;;34.92;27.52;101024.44;7396161;19;20018;-93
2023/05/13 10:04:05;;;;;;;1.77;1.00;;;;;;;35.05;27.46;101033.38;7397394;19;20014;-93
2023/05/13 10:06:32;;;;;;;2.72;1.10;;;;;;;35.39;27.89;101034.91;7395521;19;20010;-93
2023/05/13 10:09:02;;;;;;;0.82;0.40;;;;;;;35.68;26.80;101032.53;7395865;19;20031;-93
2023/05/13 10:11:32;;;;;;;2.17;0.50;;;;;;;35.75;27.31;101022.09;7396018;19;20022;-92
2023/05/13 10:14:03;;;;;;;3.27;1.13;;;;;;;35.99;27.60;101022.94;7396997;19;20047;-92
2023/05/13 10:16:31;;;;;;;1.35;0.60;;;;;;;36.16;27.44;101025.47;7396162;19;20010;-94
2023/05/13 10:19:00;;;;;;;1.58;0.30;;;;;;;36.08;26.80;101014.13;7397080;19;20019;-86
2023/05/13 10:21:27;;;;;;;0.50;0.30;;;;;;;35.97;27.33;101019.91;7396889;19;20027;-94
2023/05/13 10:23:54;;;;;;;1.65;1.38;;;;;;;35.64;27.40;101014.88;7397139;19;20014;-95
2023/05/13 10:26:22;;;;;;;4.28;0.90;;;;;;;35.93;27.49;101008.03;7397345;19;20010;-93
2023/05/13 10:28:49;;;;;;;1.02;0.75;;;;;;;35.64;27.43;101006.19;7397030;19;20017;-92
2023/05/13 10:31:16;;;;;;;1.42;0.45;;;;;;;35.99;27.54;101005.53;7394659;19;20014;-94
2023/05/13 10:33:43;;;;;;;1.70;0.60;;;;;;;36.01;27.06;101015.13;7392431;19;20025;-92
2023/05/13 10:36:28;;;;;;;5.40;0.50;;;;;;;36.13;27.44;101009.31;7394628;19;20144;-92
2023/05/13 10:39:26;;;;;;;5.28;0.88;;;;;;;35.84;26.82;101011.78;7396138;19;20449;-92
2023/05/13 10:42:13;;;;;;;1.10;0.43;;;;;;;35.86;27.54;100997.41;7396074;19;20018;-91
2023/05/13 10:44:40;;;;;;;1.75;0.82;;;;;;;36.20;26.93;100996.72;7396339;19;20022;-94
2023/05/13 10:47:08;;;;;;;0.80;0.65;;;;;;;26.41;34.72;101012.78;7393490;19;20536;-93
2023/05/13 10:49:35;;;;;;;2.17;1.42;;;;;;;25.44;39.87;101011.19;7394533;19;20422;-89
2023/05/13 10:52:06;;;;;;;0.70;0.60;;;;;;;32.74;31.46;100999.84;7396205;19;20053;-91
2023/05/13 10:54:36;;;;;;;;;;;;;;;34.87;29.06;100990.81;7396067;19;20082;-91
2023/05/13 10:57:02;;;;;;;1.20;1.10;;;;;;;28.85;33.00;101013.88;7397367;19;19911;-86
2023/05/13 10:59:29;;;;;;;3.53;1.10;;;;;;;31.81;34.19;100999.59;7394818;19;20024;-86
2023/05/13 11:01:55;;;;;;;8.93;1.42;;;;;;;33.89;30.50;100990.38;7394631;19;20484;-87
2023/05/13 11:04:22;;;;;;;0.98;0.95;;;;;;;34.50;30.53;100998.34;7395478;19;20024;-89
2023/05/13 11:06:49;;;;;;;3.40;0.85;;;;;;;35.27;28.56;100989.91;7395083;19;20018;-91
2023/05/13 11:09:21;;;;;;;2.92;1.02;;;;;;;35.22;28.69;100988.88;7396521;19;20018;-90
2023/05/13 11:11:52;;;;;;;1.05;0.38;;;;;;;35.44;28.88;100986.69;7392401;19;20429;-90
2023/05/13 11:14:21;;;;;;;3.70;0.93;;;;;;;35.65;28.49;100983.75;7396771;19;20023;-90
2023/05/13 11:16:59;;;;;;;6.35;1.00;;;;;;;35.63;27.87;100986.50;7395162;19;20438;-92
2023/05/13 11:19:27;;;;;;;3.08;0.75;;;;;;;36.26;27.16;100988.38;7402424;19;20003;-84
2023/05/13 11:22:07;;;;;;;1.38;0.70;;;;;;;36.28;26.85;100979.78;7399773;19;20031;-77
2023/05/13 11:24:33;;;;;;;1.52;0.68;;;;;;;36.58;26.95;100975.88;7397192;19;20025;-79
2023/05/13 11:27:18;;;;;;;1.48;1.13;;;;;;;36.95;27.87;100987.59;7399411;19;20022;-84
2023/05/13 11:29:52;;;;;;;1.25;0.70;;;;;;;37.05;26.77;100980.22;7399939;19;20088;-89